香港 の空港の天気 - METARとTAF

香港国際空港 ( VHHH / HKG ) - 香港 赤リョウ角
飛行場実況気象(Metar)
観測時間05/29 05:30 HKT (05/28 21:30 UTC)
風向・風速南南西 5m/s
視程10km以上
天気現象
少しの雲 雲底高度 300m
全天の4割程度の雲 雲底高度 670m
気温29℃
湿度74%
気圧1005hPa
METARVHHH 282130Z 21010KT 9999 FEW010 SCT022 29/24 Q1005 NOSIG
過去の天気等 Google飛行場航空写真 Wunderground天気予報

過去48時間のMETAR

飛行場予報(TAF)
発表時間: 5/29 01:00 HKT (5/28 17:00 UTC)
予報対象時間: 29日2時 HKT ~ 30日8時 HKT
風向・風速南南東 5m/s
視程10km以上
少しの雲 雲底高度 300m
全天の4割程度の雲 雲底高度 760m
29日5時 HKT ~ 29日11時 HKT に一時的に
視程4000m
天気現象しゅう雨
TAF VHHH 281700Z 2818/2924 15010KT 9999 FEW010 SCT025 TX32/2906Z TN27/2822Z TN27/2922Z
TEMPO 2821/2903 4000 SHRA